首页
METAR-TAF:

METAR-TAF

机场 :

汶萊國際機場

文莱, 文莱

纬度: 04-56N, 经度: 114-56E, 海拔: 22米

当前天气观测

该预报发布于28分钟前的18:00 UTC
风速3节,风向
温度 27°C
湿度 89%
气压 1011 hPa
能見度: 9000
少量云层高于1500英尺
散云层高于14000英尺
多云层高于30000英尺

METAR: WBSB 241800Z 35003KT 9000 FEW015 SCT140 BKN300 27/25 Q1011 NOSIG

时间: 02:28 (18:28 UTC)

预报

该预报发布于1小时和38分钟前的16:50 UTC
预报有效从24日的 18点(UTC)到 26日的 00点(UTC)
风速3节,风向北转东北
能见度10公里或以上
少量云层高于1500英尺
成为
从 25日的 03点(UTC)到 25日的 06点(UTC)
风速8节,风向东转东北
少量云层高于1600英尺

TAF: WBSB 241650Z 2418/2600 02003KT 9999 FEW015 BECMG 2503/2506 06008KT FEW016

超过4000个机场的气象观测和天气预报(METAR&TAF报告)。

可查询的气象台以黄色和红色小点在地图上表示。

将鼠标移到小点上方,可查看气象台名称。

然后点击查看天气观测和预报。

如需切换地图:点击带黑十字的绿色按钮放大地图;点击带横线的绿色按钮缩小地图;或者点击绿色箭头查看邻近地区的地图。


METAR-TAF: